• Join FlightAware (Why Join?)
  • Login
  • US Flag 
10:10PM EDT


 

Airport Tracker/Info


-or-


 

Live Flight TrackerFlight Track Log ✈ VH-EFI ✈ 22-Jul-2013 ✈ YBAF - YSBK / BWU

Flight Track Log - Related Links

Times and Time Zones

All times are in EDT time to prevent confusion due to time zone crossing. See the VH-EFI flight status page for this flight to view local times or setup timezone preferences in your user account.

Time Position Orientation Groundspeed Altitude Reporting Facility
EDT Latitude Longitude Course Direction KTS MPH feet Rate Location/Type
10:30PM -28.0011 152.9397 191° South 95 109 6,900  Level Aus ATC (RADAR)
10:31PM -28.0146 152.9368 191° South 98 113 7,200 420 Climbing Aus ATC (RADAR)
10:32PM -28.0529 152.9303 188° South 97 112 7,800 300 Climbing Aus ATC (RADAR)
10:33PM -28.0823 152.9252 189° South 110 127 8,000 120 Climbing Aus ATC (RADAR)
10:34PM -28.0993 152.9204 194° South 123 142 8,000  Level Aus ATC (RADAR)
10:34PM -28.1262 152.9070 204° Southwest 127 146 8,000  Level Aus ATC (RADAR)
10:35PM -28.1591 152.8907 204° Southwest 130 150 8,000  Level Aus ATC (RADAR)
10:36PM -28.1841 152.8786 203° Southwest 131 151 8,000  Level Aus ATC (RADAR)
10:37PM -28.2062 152.8678 203° Southwest 130 150 8,000  Level Aus ATC (RADAR)
10:38PM -28.2407 152.8498 205° Southwest 126 145 8,000  Level Aus ATC (RADAR)
10:39PM -28.2724 152.8348 203° Southwest 126 145 8,000  Level Aus ATC (RADAR)
10:40PM -28.2940 152.8241 204° Southwest 128 147 8,000  Level Aus ATC (RADAR)
10:41PM -28.3268 152.8075 204° Southwest 129 148 8,000  Level Aus ATC (RADAR)
10:41PM -28.3487 152.7974 202° Southwest 128 147 8,000  Level Aus ATC (RADAR)
10:42PM -28.3707 152.7875 202° Southwest 129 148 8,000  Level Aus ATC (RADAR)
10:43PM -28.3979 152.7742 203° Southwest 128 147 8,000  Level Aus ATC (RADAR)
10:44PM -28.4273 152.7597 203° Southwest 124 143 8,000  Level Aus ATC (RADAR)
10:44PM -28.4510 152.7479 204° Southwest 124 143 8,000  Level Aus ATC (RADAR)
10:45PM -28.4689 152.7388 204° Southwest 122 140 8,000  Level Aus ATC (RADAR)
10:46PM -28.4958 152.7259 203° Southwest 126 145 8,000  Level Aus ATC (RADAR)
10:47PM -28.5254 152.7113 203° Southwest 127 146 8,000  Level Aus ATC (RADAR)
10:48PM -28.5617 152.6941 203° Southwest 119 137 8,000  Level Aus ATC (RADAR)
10:49PM -28.5968 152.6781 202° Southwest 130 150 8,000  Level Aus ATC (RADAR)
10:50PM -28.6226 152.6610 210° Southwest 123 142 8,000  Level Aus ATC (RADAR)
10:51PM -28.6472 152.6487 204° Southwest 122 140 8,000  Level Aus ATC (RADAR)
10:51PM -28.6658 152.6399 202° Southwest 123 142 8,000  Level Aus ATC (RADAR)
10:52PM -28.6895 152.6286 203° Southwest 123 142 8,000  Level Aus ATC (RADAR)
10:52PM -28.7052 152.6202 205° Southwest 125 144 8,000  Level Aus ATC (RADAR)
10:53PM -28.7295 152.6097 201° Southwest 124 143 8,000  Level Aus ATC (RADAR)
10:54PM -28.7504 152.5992 204° Southwest 123 142 8,000  Level Aus ATC (RADAR)
10:54PM -28.7690 152.5891 205° Southwest 127 146 8,000  Level Aus ATC (RADAR)
10:55PM -28.7868 152.5773 210° Southwest 127 146 8,000  Level Aus ATC (RADAR)
10:58PM -28.8885 152.5284 203° Southwest 8,000  Level Aus ATC (Calculated)
11:00PM -28.9340 152.5065 203° Southwest  Level FlightAware Approximate
11:01PM -28.9673 152.4904 203° Southwest  Level FlightAware Approximate
11:02PM -29.0005 152.4744 203° Southwest  Level FlightAware Approximate
11:03PM -29.0338 152.4583 203° Southwest  Level FlightAware Approximate
11:04PM -29.0671 152.4423 203° Southwest  Level FlightAware Approximate
11:05PM -29.1003 152.4262 203° Southwest  Level FlightAware Approximate
11:06PM -29.1336 152.4101 203° Southwest  Level FlightAware Approximate
11:07PM -29.1668 152.3940 203° Southwest  Level FlightAware Approximate
11:08PM -29.2001 152.3779 203° Southwest  Level FlightAware Approximate
11:09PM -29.2333 152.3618 203° Southwest  Level FlightAware Approximate
11:10PM -29.2666 152.3456 203° Southwest  Level FlightAware Approximate
11:11PM -29.2998 152.3295 203° Southwest  Level FlightAware Approximate
11:12PM -29.3331 152.3134 203° Southwest  Level FlightAware Approximate
11:13PM -29.3663 152.2972 203° Southwest  Level FlightAware Approximate
11:14PM -29.3996 152.2810 203° Southwest  Level FlightAware Approximate
11:15PM -29.4328 152.2648 203° Southwest  Level FlightAware Approximate
11:16PM -29.4660 152.2487 203° Southwest  Level FlightAware Approximate
11:16PM -29.5111 152.2267 202° Southwest 8,000  Level Aus ATC (Calculated)
11:18PM -29.5698 152.1980 203° Southwest  Level FlightAware Approximate
11:18PM -29.5556 152.2050 202° Southwest 8,000  Level Aus ATC (Calculated)
11:20PM -29.6129 152.1807 203° Southwest 8,000  Level Aus ATC (Calculated)
11:20PM -29.6082 152.1793 203° Southwest  Level FlightAware Approximate
11:21PM -29.5788 152.1876 10° North  Level FlightAware Approximate
11:21PM -29.6684 152.1571 204° Southwest 8,000  Level Aus ATC (Calculated)
11:22PM -29.6129 152.1807 190° South  Level FlightAware Approximate
11:23PM -29.6319 152.1711 18° North  Level FlightAware Approximate
11:24PM -29.6068 152.1804 200° South  Level FlightAware Approximate
11:25PM -29.6391 152.1667 200° South  Level FlightAware Approximate
11:26PM -29.6714 152.1530 200° South  Level FlightAware Approximate
11:27PM -29.7037 152.1393 200° South  Level FlightAware Approximate
11:27PM -29.7861 152.0956 200° South 117 135 8,000  Level Aus ATC (RADAR)
11:28PM -29.8045 152.0909 193° South 116 133 8,000  Level Aus ATC (RADAR)
11:29PM -29.8310 152.0830 194° South 118 136 8,000  Level Aus ATC (RADAR)
11:29PM -29.8518 152.0722 204° Southwest 122 140 8,000  Level Aus ATC (RADAR)
11:30PM -29.8705 152.0641 201° Southwest 124 143 8,000  Level Aus ATC (RADAR)
11:31PM -29.9089 152.0472 201° Southwest 128 147 8,000  Level Aus ATC (RADAR)
11:32PM -29.9447 152.0332 199° South 126 145 8,000  Level Aus ATC (RADAR)
11:33PM -29.9774 152.0183 202° Southwest 127 146 8,000  Level Aus ATC (RADAR)
11:34PM -30.0106 152.0042 200° South 127 146 8,000  Level Aus ATC (RADAR)
11:35PM -30.0461 151.9861 204° Southwest 127 146 8,000  Level Aus ATC (RADAR)
11:36PM -30.0711 151.9763 199° South 127 146 8,000  Level Aus ATC (RADAR)
11:37PM -30.1007 151.9649 198° South 133 153 8,000  Level Aus ATC (RADAR)
11:38PM -30.1339 151.9510 200° South 128 147 8,000  Level Aus ATC (RADAR)
11:38PM -30.1524 151.9421 203° Southwest 125 144 8,000  Level Aus ATC (RADAR)
11:39PM -30.1832 151.9333 194° South 125 144 8,000  Level Aus ATC (RADAR)
11:40PM -30.2113 151.9220 199° South 129 148 8,000  Level Aus ATC (RADAR)
11:41PM -30.2310 151.9144 199° South 127 146 8,000  Level Aus ATC (RADAR)
11:42PM -30.2595 151.8983 206° Southwest 125 144 8,000  Level Aus ATC (RADAR)
11:43PM -30.2930 151.8828 202° Southwest 130 150 8,000  Level Aus ATC (RADAR)
11:43PM -30.3154 151.8733 200° South 129 148 8,000  Level Aus ATC (RADAR)
11:44PM -30.3356 151.8651 199° South 132 152 8,000  Level Aus ATC (RADAR)
11:45PM -30.3618 151.8537 201° Southwest 134 154 8,000  Level Aus ATC (RADAR)
11:45PM -30.3790 151.8466 200° South 132 152 8,000  Level Aus ATC (RADAR)
11:46PM -30.3999 151.8393 197° South 134 154 8,000  Level Aus ATC (RADAR)
11:47PM -30.4254 151.8294 198° South 128 147 8,000  Level Aus ATC (RADAR)
11:47PM -30.4484 151.8192 201° Southwest 134 154 8,000  Level Aus ATC (RADAR)
11:48PM -30.4800 151.8036 203° Southwest 133 153 8,000  Level Aus ATC (RADAR)
11:49PM -30.5014 151.7940 201° Southwest 141 162 8,000  Level Aus ATC (RADAR)
11:50PM -30.5400 151.7787 199° South 132 152 8,000  Level Aus ATC (RADAR)
11:50PM -30.5564 151.7723 199° South 126 145 8,000  Level Aus ATC (RADAR)
11:51PM -30.5886 151.7569 202° Southwest 139 160 8,000  Level Aus ATC (RADAR)
11:52PM -30.6213 151.7441 199° South 134 154 8,000  Level Aus ATC (RADAR)
11:53PM -30.6411 151.7353 201° Southwest 131 151 8,000  Level Aus ATC (RADAR)
11:53PM -30.6678 151.7231 201° Southwest 138 159 8,000  Level Aus ATC (RADAR)
11:54PM -30.6914 151.7128 201° Southwest 135 155 8,000  Level Aus ATC (RADAR)
11:55PM -30.7185 151.7017 199° South 123 142 8,000  Level Aus ATC (RADAR)
11:56PM -30.7467 151.6889 201° Southwest 121 139 8,000  Level Aus ATC (RADAR)
11:57PM -30.7741 151.6781 199° South 111 128 8,100 240 Climbing Aus ATC (RADAR)
11:57PM -30.7874 151.6723 200° South 91 105 8,400 360 Climbing Aus ATC (RADAR)
11:58PM -30.8037 151.6637 205° Southwest 86 99 8,600 120 Climbing Aus ATC (RADAR)
11:59PM -30.8146 151.6602 195° South 83 96 8,600 360 Level Aus ATC (RADAR)
11:59PM -30.8278 151.6543 201° Southwest 87 100 9,000 480 Climbing Aus ATC (RADAR)
12:00AM -30.8565 151.6409 202° Southwest 88 101 9,500 300 Climbing Aus ATC (RADAR)
12:01AM -30.8797 151.6315 199° South 89 102 9,800 240 Climbing Aus ATC (RADAR)
12:02AM -30.8995 151.6227 201° Southwest 93 107 10,000 120 Climbing Aus ATC (RADAR)
12:03AM -30.9165 151.6150 201° Southwest 110 127 10,000  Level Aus ATC (RADAR)
12:04AM -30.9405 151.6045 201° Southwest 122 140 10,000  Level Aus ATC (RADAR)
12:05AM -31.0009 151.5799 199° South 124 143 10,100  Climbing Aus ATC (RADAR)
12:06AM -31.0339 151.5647 202° Southwest 127 146 10,100  Level Aus ATC (RADAR)
12:07AM -31.0592 151.5546 199° South 127 146 10,100  Level Aus ATC (RADAR)
12:08AM -31.0779 151.5462 201° Southwest 124 143 10,100  Level Aus ATC (RADAR)
12:08AM -31.1004 151.5370 199° South 128 147 10,100  Level Aus ATC (RADAR)
12:10AM -31.1401 151.5202 200° South 121 139 10,100 -60 Level Aus ATC (RADAR)
12:10AM -31.1590 151.5105 204° Southwest 127 146 10,000 -120 Descending Aus ATC (RADAR)
12:11AM -31.1819 151.5013 199° South 129 148 10,000  Level Aus ATC (RADAR)
12:12AM -31.2099 151.4891 200° South 129 148 10,000  Level Aus ATC (RADAR)
12:13AM -31.2414 151.4757 200° South 130 150 10,000  Level Aus ATC (RADAR)
12:13AM -31.2670 151.4642 201° Southwest 132 152 10,000  Level Aus ATC (RADAR)
12:14AM -31.2875 151.4553 200° South 134 154 10,000  Level Aus ATC (RADAR)
12:15AM -31.3367 151.4342 200° South 130 150 10,000  Level Aus ATC (RADAR)
12:16AM -31.3524 151.4276 200° South 122 140 10,000  Level Aus ATC (RADAR)
12:17AM -31.3773 151.4169 200° South 103 119 10,000  Level Aus ATC (RADAR)
12:18AM -31.4232 151.4075 190° South 123 142 10,000  Level Aus ATC (RADAR)
12:19AM -31.4491 151.4043 186° South 124 143 10,000  Level Aus ATC (RADAR)
12:19AM -31.4659 151.4022 186° South 121 139 10,000  Level Aus ATC (RADAR)
12:20AM -31.4912 151.3986 187° South 123 142 10,000  Level Aus ATC (RADAR)
12:21AM -31.5123 151.3962 186° South 128 147 10,000  Level Aus ATC (RADAR)
12:21AM -31.5323 151.3938 186° South 122 140 10,000  Level Aus ATC (RADAR)
12:22AM -31.5555 151.3910 186° South 110 127 10,000  Level Aus ATC (RADAR)
12:23AM -31.5859 151.3868 187° South 113 130 10,000  Level Aus ATC (RADAR)
12:24AM -31.6077 151.3841 186° South 102 117 10,000  Level Aus ATC (RADAR)
12:24AM -31.6221 151.3835 182° South 89 102 10,000 -120 Level Aus ATC (RADAR)
12:25AM -31.6441 151.3841 179° South 94 108 9,900  Descending Aus ATC (RADAR)
12:26AM -31.6666 151.3811 186° South 88 101 10,000 60 Climbing Aus ATC (RADAR)
12:27AM -31.6867 151.3750 195° South 90 104 10,100 180 Climbing Aus ATC (RADAR)
12:28AM -31.7017 151.3709 193° South 93 107 10,300 60 Climbing Aus ATC (RADAR)
12:28AM -31.7233 151.3650 193° South 110 127 10,200 -120 Descending Aus ATC (RADAR)
12:29AM -31.7576 151.3556 193° South 125 144 10,100 -120 Descending Aus ATC (RADAR)
12:31AM -31.8176 151.3569 179° South 145 167 9,900 -120 Descending Aus ATC (RADAR)
12:32AM -31.8499 151.3654 167° South 138 159 9,900  Level Aus ATC (RADAR)
12:32AM -31.8780 151.3675 176° South 134 154 9,900 120 Level Aus ATC (RADAR)
12:33AM -31.9006 151.3733 168° South 138 159 10,100  Climbing Aus ATC (RADAR)
12:34AM -31.9300 151.3706 185° South 126 145 9,900 -180 Descending Aus ATC (RADAR)
12:35AM -31.9580 151.3588 200° South 111 128 9,800  Descending Aus ATC (RADAR)
12:36AM -31.9822 151.3471 202° Southwest 108 124 9,900 120 Climbing Aus ATC (RADAR)
12:37AM -32.0181 151.3476 179° South 128 147 10,100  Climbing Aus ATC (RADAR)
12:37AM -32.0439 151.3424 190° South 125 144 10,000 -120 Descending Aus ATC (RADAR)
12:38AM -32.0676 151.3376 190° South 128 147 10,000 -120 Level Aus ATC (RADAR)
12:39AM -32.0970 151.3298 193° South 131 151 9,900 -60 Descending Aus ATC (RADAR)
12:40AM -32.1322 151.3219 191° South 121 139 9,900  Level Aus ATC (RADAR)
12:41AM -32.1603 151.3174 188° South 124 143 9,900  Level Aus ATC (RADAR)
12:42AM -32.1967 151.3112 188° South 131 151 10,000  Climbing Aus ATC (RADAR)
12:42AM -32.2233 151.3049 191° South 130 150 10,000 -120 Level Aus ATC (RADAR)
12:43AM -32.2452 151.3004 190° South 136 157 9,900  Descending Aus ATC (RADAR)
12:44AM -32.2671 151.2993 182° South 133 153 10,000  Climbing Aus ATC (RADAR)
12:44AM -32.2904 151.2986 181° South 141 162 9,900  Descending Aus ATC (RADAR)
12:45AM -32.3124 151.2978 182° South 136 157 10,000  Climbing Aus ATC (RADAR)
12:46AM -32.3661 151.2907 186° South 143 165 10,000 -120 Level Aus ATC (RADAR)
12:47AM -32.3970 151.2823 193° South 140 161 9,800 -120 Descending Aus ATC (RADAR)
12:48AM -32.4246 151.2742 194° South 121 139 9,800 60 Level Aus ATC (RADAR)
12:48AM -32.4420 151.2710 189° South 109 125 9,900 60 Climbing Aus ATC (RADAR)
12:49AM -32.4644 151.2662 190° South 108 124 9,900  Level Aus ATC (RADAR)
12:50AM -32.5006 151.2629 184° South 136 157 10,000  Climbing Aus ATC (RADAR)
12:51AM -32.5347 151.2637 179° South 147 169 9,900 -120 Descending Aus ATC (RADAR)
12:52AM -32.5670 151.2598 186° South 138 159 9,800  Descending Aus ATC (RADAR)
12:53AM -32.5932 151.2527 193° South 131 151 9,900 120 Climbing Aus ATC (RADAR)
12:53AM -32.6149 151.2509 184° South 133 153 10,000  Climbing Aus ATC (RADAR)
12:54AM -32.6362 151.2458 191° South 134 154 9,900 -120 Descending Aus ATC (RADAR)
12:54AM -32.6584 151.2398 193° South 135 155 9,900 60 Level Aus ATC (RADAR)
12:55AM -32.6790 151.2342 193° South 131 151 10,000 60 Climbing Aus ATC (RADAR)
12:56AM -32.7043 151.2265 194° South 129 148 10,000 -300 Level Aus ATC (RADAR)
12:56AM -32.7285 151.2171 198° South 139 160 9,600 -480 Descending Aus ATC (RADAR)
12:57AM -32.7508 151.2117 191° South 137 158 9,400 -480 Descending Aus ATC (RADAR)
12:58AM -32.7745 151.2074 189° South 131 151 9,000 -240 Descending Aus ATC (RADAR)
12:59AM -32.8144 151.2017 187° South 128 147 9,000  Level Aus ATC (RADAR)
12:59AM -32.8408 151.1969 189° South 124 143 9,000 60 Level Aus ATC (RADAR)
01:00AM -32.8607 151.1932 189° South 128 147 9,100 -120 Climbing Aus ATC (RADAR)
01:01AM -32.8919 151.1884 187° South 136 157 8,900 -120 Descending Aus ATC (RADAR)
01:02AM -32.9178 151.1831 190° South 122 140 9,000 60 Climbing Aus ATC (RADAR)
01:02AM -32.9376 151.1791 190° South 123 142 9,000  Level Aus ATC (RADAR)
01:03AM -32.9588 151.1716 196° South 120 138 9,000  Level Aus ATC (RADAR)
01:04AM -32.9889 151.1630 193° South 121 139 9,000 -120 Level Aus ATC (RADAR)
01:04AM -33.0112 151.1569 193° South 122 140 8,900  Descending Aus ATC (RADAR)
01:05AM -33.0472 151.1538 184° South 120 138 9,000  Climbing Aus ATC (RADAR)
01:06AM -33.0765 151.1509 185° South 126 145 9,000 60 Level Aus ATC (RADAR)
01:07AM -33.1052 151.1467 187° South 125 144 9,100  Climbing Aus ATC (RADAR)
01:08AM -33.1309 151.1409 191° South 125 144 9,000 -540 Descending Aus ATC (RADAR)
01:08AM -33.1538 151.1365 189° South 137 158 8,400 -1,140 Descending Aus ATC (RADAR)
01:09AM -33.1834 151.1315 188° South 142 163 7,500 -1,080 Descending Aus ATC (RADAR)
01:10AM -33.2059 151.1273 189° South 137 158 7,000 -900 Descending Aus ATC (RADAR)
01:13AM -33.3211 151.1205 225° Southwest 7,800 240 Climbing Aus ATC (Calculated)
01:15AM -33.3550 151.0795 225° Southwest  Level FlightAware Approximate
01:16AM -33.3786 151.0509 225° Southwest  Level FlightAware Approximate
01:17AM -33.4022 151.0223 225° Southwest  Level FlightAware Approximate
01:18AM -33.4258 150.9937 225° Southwest  Level FlightAware Approximate
01:19AM -33.4494 150.9650 225° Southwest  Level FlightAware Approximate
01:20AM -33.4730 150.9364 225° Southwest  Level FlightAware Approximate
01:21AM -33.4965 150.9077 225° Southwest  Level FlightAware Approximate
01:22AM -33.5201 150.8790 225° Southwest  Level FlightAware Approximate
01:23AM -33.5437 150.8503 225° Southwest  Level FlightAware Approximate
01:24AM -33.5672 150.8215 225° Southwest  Level FlightAware Approximate
01:25AM -33.5908 150.7928 225° Southwest  Level FlightAware Approximate
01:26AM -33.6144 150.7640 225° Southwest  Level FlightAware Approximate
01:27AM -33.5908 150.7928 45° Northeast  Level FlightAware Approximate
01:28AM -33.6144 150.7640 225° Southwest  Level FlightAware Approximate
01:29AM -33.6279 150.7981 152° Southeast  Level FlightAware Approximate
01:30AM -33.6576 150.8170 152° Southeast  Level FlightAware Approximate
01:31AM -33.6872 150.8360 152° Southeast  Level FlightAware Approximate
01:32AM -33.7169 150.8550 152° Southeast  Level FlightAware Approximate
01:33AM -33.7465 150.8740 152° Southeast  Level FlightAware Approximate
01:34AM -33.7761 150.8930 152° Southeast  Level FlightAware Approximate
01:35AM -33.8058 150.9121 152° Southeast  Level FlightAware Approximate
01:36AM -33.8354 150.9311 152° Southeast  Level FlightAware Approximate
01:37AM -33.8650 150.9502 152° Southeast  Level FlightAware Approximate
01:38AM -33.8946 150.9692 152° Southeast  Level FlightAware Approximate
01:39AM -33.9243 150.9883 152° Southeast  Level FlightAware Approximate
01:40AM -33.9244 150.9884 152° Southeast  Level FlightAware Approximate
01:41AM -33.9244 150.9883 152° Southeast  Level Estimated